Current | Forecast
Updated: 6:30 PM EEST on June 26, 2017
Observed at Kyiv, Ukraine
Temperature 24°C
Humidity 69%
Dew Point 18°C
Wind West at 14 km/h
Pressure 1009 hPa (Steady)
Conditions Mostly Cloudy
Visibility 10.0 kilometers
UV 1 out of 16
Clouds (FEW) : 914 m
Mostly Cloudy (BKN) : 2926 m
Yesterday's Maximum 28°C
Yesterday's Minimum 16°C approx.
Yesterday's Cooling Degree Days 7 approx.
Sunrise4:50 AM EEST
Sunset9:17 PM EEST
Moon Rise7:37 AM EEST
Moon Set11:01 PM EEST
Moon PhaseMoon Phase
Waxing Crescent
Raw METARMETAR UKKK 261530Z 28004MPS 9999 FEW030CB BKN096 24/18 Q1009 R26/290157 NOSIG


Monday
. High: 62° F.
Tuesday
. High: 66° F.
Wednesday
. High: 73° F.
Thursday
. High: 73° F.
Friday
. High: 62° F.
Saturday
. High: 64° F.
Sunday
. High: 66° F.
Monday
. High: 77° F.

Units: English | Metric

Find the Weather for any City, State or Zipcode, or Country:

U.S. State List | Severe Weather | Tropical Storms | Ski Conditions
United States | Canada | Central America | South America | Asia | Europe | Australia | Africa | Islands

Weather Underground

© Copyright 2017
The Weather Company, LLC